Time;durP1;ratioP1;P1;durP2;ratioP2;P2;SDS_P1;SDS_P2;PMS_P1;PMS_P2;Temp;Humidity;BMP_temperature;BMP_pressure;BME280_temperature;BME280_humidity;BME280_pressure;Samples;Min_cycle;Max_cycle;Signal;HPM_P1;HPM_P2
2023/04/01 00:00:27;;;;;;;4.50;2.38;;;;;;;6.00;100.00;95332.91;4935355;29;20036;-64
2023/04/01 00:02:52;;;;;;;7.53;2.95;;;;;;;5.93;100.00;95329.13;4939597;29;20039;-64
2023/04/01 00:05:18;;;;;;;6.60;2.80;;;;;;;5.87;100.00;95338.28;4917267;29;20031;-64
2023/04/01 00:07:43;;;;;;;5.57;2.60;;;;;;;5.88;100.00;95362.63;4936031;29;20499;-64
2023/04/01 00:10:11;;;;;;;5.00;2.90;;;;;;;5.85;100.00;95376.75;4933473;29;20098;-64
2023/04/01 00:12:37;;;;;;;5.70;2.50;;;;;;;5.88;100.00;95386.16;4938355;29;20043;-64
2023/04/01 00:15:05;;;;;;;7.50;3.10;;;;;;;5.77;100.00;95394.00;4937456;29;20043;-64
2023/04/01 00:17:31;;;;;;;6.47;3.33;;;;;;;5.78;100.00;95393.03;4927689;29;20061;-64
2023/04/01 00:19:56;;;;;;;9.57;3.90;;;;;;;5.96;100.00;95415.13;4939253;29;20600;-64
2023/04/01 00:22:23;;;;;;;6.88;3.15;;;;;;;6.08;100.00;95412.50;4935646;29;20043;-64
2023/04/01 00:24:48;;;;;;;7.00;2.65;;;;;;;5.88;100.00;95413.09;4909044;29;20023;-64
2023/04/01 00:27:14;;;;;;;6.28;2.88;;;;;;;5.91;100.00;95422.50;4932138;29;20040;-64
2023/04/01 00:29:42;;;;;;;5.63;2.40;;;;;;;5.92;100.00;95416.31;4938703;29;20042;-64
2023/04/01 00:32:07;;;;;;;5.55;2.53;;;;;;;5.99;100.00;95414.06;4938513;29;20028;-64
2023/04/01 00:34:33;;;;;;;7.90;3.15;;;;;;;6.01;100.00;95420.03;4938516;29;20055;-64
2023/04/01 00:36:58;;;;;;;5.70;2.63;;;;;;;5.92;100.00;95428.53;4938661;29;20508;-64
2023/04/01 00:39:23;;;;;;;5.28;2.38;;;;;;;5.82;100.00;95436.25;4934251;29;20031;-64
2023/04/01 00:41:49;;;;;;;4.50;2.30;;;;;;;5.82;100.00;95436.25;4939384;29;20373;-63
2023/04/01 00:44:24;;;;;;;4.18;2.38;;;;;;;5.84;100.00;95427.34;4933900;29;20468;-64
2023/04/01 00:46:52;;;;;;;4.40;2.58;;;;;;;5.84;100.00;95432.59;4936147;29;20035;-64
2023/04/01 00:49:20;;;;;;;8.27;2.95;;;;;;;5.81;100.00;95426.75;4937546;29;20051;-64
2023/04/01 00:51:50;;;;;;;5.55;2.50;;;;;;;5.77;100.00;95428.78;4932854;29;20038;-64
2023/04/01 00:54:19;;;;;;;4.43;2.35;;;;;;;5.73;100.00;95433.41;4936171;29;20059;-64
2023/04/01 00:56:49;;;;;;;7.07;2.55;;;;;;;5.81;100.00;95429.38;4912412;29;20123;-64
2023/04/01 00:59:22;;;;;;;4.10;2.40;;;;;;;5.76;100.00;95441.97;4936480;29;20039;-64
2023/04/01 01:01:48;;;;;;;5.22;2.72;;;;;;;5.70;100.00;95435.41;4938837;29;20027;-64
2023/04/01 01:04:24;;;;;;;4.65;3.20;;;;;;;5.71;100.00;95439.69;4935200;29;20031;-64
2023/04/01 01:07:16;;;;;;;6.90;2.90;;;;;;;5.67;100.00;95444.34;4934735;29;20027;-64
2023/04/01 01:10:08;;;;;;;3.05;2.38;;;;;;;5.71;100.00;95430.09;4931325;29;20100;-64
2023/04/01 01:12:50;;;;;;;6.40;2.60;;;;;;;5.63;100.00;95424.59;4935530;29;20138;-69
2023/04/01 01:15:25;;;;;;;2.85;2.50;;;;;;;5.72;100.00;95425.69;4932591;29;20035;-64
2023/04/01 01:17:56;;;;;;;4.03;2.88;;;;;;;5.65;100.00;95427.97;4937716;29;20020;-64
2023/04/01 01:20:48;;;;;;;8.40;2.80;;;;;;;5.73;100.00;95428.19;4938571;29;20034;-64
2023/04/01 01:23:35;;;;;;;5.53;2.40;;;;;;;5.60;100.00;95427.47;4930473;29;20563;-64
2023/04/01 01:26:26;;;;;;;9.15;2.30;;;;;;;5.60;100.00;95432.69;4933751;29;20054;-64
2023/04/01 01:29:01;;;;;;;3.55;2.20;;;;;;;5.59;100.00;95438.84;4930790;29;20039;-64
2023/04/01 01:31:50;;;;;;;;;;;;;;;5.58;100.00;95439.81;4937613;29;20668;-64
2023/04/01 01:34:31;;;;;;;5.18;2.42;;;;;;;5.58;100.00;95450.25;4905600;29;19937;-64
2023/04/01 01:37:02;;;;;;;3.88;2.25;;;;;;;5.54;100.00;95454.06;4929336;29;20060;-64
2023/04/01 01:39:32;;;;;;;8.45;2.85;;;;;;;5.48;100.00;95455.34;4927045;29;20020;-64
2023/04/01 01:42:03;;;;;;;5.18;2.42;;;;;;;5.44;100.00;95457.38;4929091;29;20529;-64
2023/04/01 01:44:31;;;;;;;5.68;2.47;;;;;;;5.48;100.00;95450.13;4918330;29;20058;-64
2023/04/01 01:46:57;;;;;;;4.93;2.20;;;;;;;5.48;100.00;95431.03;4930968;29;20027;-64
2023/04/01 01:49:24;;;;;;;3.03;1.80;;;;;;;5.43;100.00;95424.38;4933821;29;20067;-64
2023/04/01 01:51:50;;;;;;;2.50;2.15;;;;;;;5.38;100.00;95420.44;4926782;29;20084;-64
2023/04/01 01:54:17;;;;;;;6.13;2.20;;;;;;;5.42;100.00;95409.66;4926515;29;20043;-64
2023/04/01 01:56:46;;;;;;;4.35;2.35;;;;;;;5.38;100.00;95402.16;4934586;29;20050;-64
2023/04/01 01:59:15;;;;;;;3.08;2.47;;;;;;;5.33;100.00;95405.13;4929564;29;20038;-64
2023/04/01 02:01:45;;;;;;;4.65;2.85;;;;;;;5.36;100.00;95404.06;4909612;29;20028;-64
2023/04/01 02:04:13;;;;;;;3.20;2.40;;;;;;;5.32;100.00;95403.47;4929906;29;20016;-64
2023/04/01 02:06:44;;;;;;;4.90;2.50;;;;;;;5.30;100.00;95397.53;4937766;29;20079;-63
2023/04/01 02:09:11;;;;;;;7.00;2.45;;;;;;;5.38;100.00;95400.38;4925545;29;20123;-64
2023/04/01 02:11:48;;;;;;;7.97;2.55;;;;;;;5.34;100.00;95404.19;4931380;29;20616;-63
2023/04/01 02:14:21;;;;;;;2.92;2.25;;;;;;;5.29;100.00;95396.69;4935254;29;20035;-63
2023/04/01 02:17:20;;;;;;;5.25;2.92;;;;;;;5.26;100.00;95398.72;4937507;29;20063;-63
2023/04/01 02:19:56;;;;;;;8.55;2.67;;;;;;;5.32;100.00;95386.97;4927671;29;20038;-63
2023/04/01 02:22:33;;;;;;;3.67;2.35;;;;;;;5.30;100.00;95400.97;4935206;29;20027;-63
2023/04/01 02:25:11;;;;;;;7.25;2.67;;;;;;;5.30;100.00;95400.97;4934504;29;20032;-63
2023/04/01 02:27:38;;;;;;;5.45;3.00;;;;;;;5.29;100.00;95401.91;4932757;29;20024;-63
2023/04/01 02:30:05;;;;;;;7.93;4.65;;;;;;;5.30;100.00;95405.34;4936513;29;20499;-63
2023/04/01 02:32:33;;;;;;;3.92;2.35;;;;;;;5.39;100.00;95404.66;4937774;29;20845;-63
2023/04/01 02:34:59;;;;;;;4.25;2.67;;;;;;;5.37;100.00;95414.38;4904644;29;20174;-63
2023/04/01 02:37:25;;;;;;;3.22;2.30;;;;;;;5.41;100.00;95413.19;4937622;29;20059;-63
2023/04/01 02:39:50;;;;;;;6.22;2.40;;;;;;;5.39;100.00;95399.44;4933584;29;20572;-63
2023/04/01 02:42:16;;;;;;;5.93;2.45;;;;;;;5.35;100.00;95399.81;4930705;29;20035;-63
2023/04/01 02:44:41;;;;;;;6.20;3.10;;;;;;;5.37;100.00;95397.91;4937089;29;20032;-63
2023/04/01 02:47:06;;;;;;;4.53;2.55;;;;;;;5.44;100.00;95402.53;4937233;29;20064;-63
2023/04/01 02:49:32;;;;;;;3.20;2.20;;;;;;;5.46;100.00;95399.78;4937404;29;20063;-63
2023/04/01 02:51:57;;;;;;;7.05;2.60;;;;;;;5.41;100.00;95397.53;4919608;29;20023;-63
2023/04/01 02:54:23;;;;;;;8.00;4.05;;;;;;;5.37;100.00;95390.88;4937154;29;20056;-63
2023/04/01 02:56:48;;;;;;;7.97;4.90;;;;;;;5.35;100.00;95395.41;4919918;29;20044;-63
2023/04/01 02:59:14;;;;;;;8.48;5.50;;;;;;;5.37;100.00;95400.50;4934787;29;20035;-62
2023/04/01 03:01:39;;;;;;;5.88;3.08;;;;;;;5.36;100.00;95389.22;4936809;29;20497;-63
2023/04/01 03:04:05;;;;;;;4.00;2.45;;;;;;;5.33;100.00;95384.25;4936360;29;20027;-63
2023/04/01 03:06:30;;;;;;;4.47;2.80;;;;;;;5.31;100.00;95391.34;4928983;29;20058;-63
2023/04/01 03:08:56;;;;;;;2.83;2.47;;;;;;;5.30;100.00;95389.69;4932613;29;20164;-63
2023/04/01 03:11:21;;;;;;;5.60;2.78;;;;;;;5.24;100.00;95390.16;4932731;29;20031;-62
2023/04/01 03:13:47;;;;;;;3.97;2.63;;;;;;;5.16;100.00;95382.91;4936749;29;20110;-63
2023/04/01 03:16:12;;;;;;;6.30;3.80;;;;;;;5.14;100.00;95390.03;4897675;29;20031;-62
2023/04/01 03:18:38;;;;;;;4.03;2.55;;;;;;;5.12;100.00;95384.91;4937328;29;20036;-63
2023/04/01 03:21:18;;;;;;;3.30;2.20;;;;;;;5.15;100.00;95381.25;4906407;29;20477;-63
2023/04/01 03:23:44;;;;;;;4.93;2.60;;;;;;;5.12;100.00;95377.09;4922836;29;20028;-63
2023/04/01 03:26:09;;;;;;;10.25;3.17;;;;;;;5.19;100.00;95368.78;4936326;29;20075;-63
2023/04/01 03:28:35;;;;;;;10.35;2.92;;;;;;;5.24;100.00;95354.44;4936761;29;20040;-63
2023/04/01 03:31:00;;;;;;;7.68;2.80;;;;;;;5.29;100.00;95354.09;4937161;29;20027;-63
2023/04/01 03:33:26;;;;;;;7.47;2.67;;;;;;;5.33;100.00;95358.13;4925099;29;20048;-63
2023/04/01 03:35:52;;;;;;;2.78;2.20;;;;;;;5.31;100.00;95344.38;4925552;29;20035;-63
2023/04/01 03:38:17;;;;;;;7.00;2.50;;;;;;;5.25;100.00;95337.03;4930176;29;20465;-63
2023/04/01 03:40:43;;;;;;;6.03;2.40;;;;;;;5.20;100.00;95334.75;4935746;29;20656;-63
2023/04/01 03:43:09;;;;;;;3.42;2.13;;;;;;;5.20;100.00;95324.31;4925695;29;20020;-63
2023/04/01 03:45:35;;;;;;;4.05;2.10;;;;;;;5.22;100.00;95305.94;4936702;29;20035;-62
2023/04/01 03:48:01;;;;;;;4.30;2.33;;;;;;;5.22;100.00;95319.00;4903398;29;20065;-62
2023/04/01 03:50:26;;;;;;;3.42;2.90;;;;;;;5.24;100.00;95319.69;4934246;29;20028;-62
2023/04/01 03:52:51;;;;;;;3.35;2.53;;;;;;;5.18;100.00;95310.56;4937859;29;20055;-63
2023/04/01 03:55:17;;;;;;;5.30;2.40;;;;;;;5.18;100.00;95305.34;4940183;29;20084;-62
2023/04/01 03:57:44;;;;;;;4.07;2.80;;;;;;;5.22;100.00;95308.56;4935765;29;20403;-63
2023/04/01 04:00:10;;;;;;;5.78;2.80;;;;;;;5.21;100.00;95305.09;4930359;29;20032;-62
2023/04/01 04:02:36;;;;;;;4.38;2.65;;;;;;;5.23;100.00;95297.16;4916880;29;20060;-62
2023/04/01 04:05:01;;;;;;;4.78;2.90;;;;;;;5.22;100.00;95283.25;4926591;29;20027;-62
2023/04/01 04:07:27;;;;;;;5.90;3.97;;;;;;;5.21;100.00;95286.00;4930678;29;20020;-63
2023/04/01 04:09:52;;;;;;;4.38;3.03;;;;;;;5.15;100.00;95280.28;4933051;29;20064;-62
2023/04/01 04:12:17;;;;;;;7.72;2.75;;;;;;;5.19;100.00;95282.66;4935256;29;20115;-63
2023/04/01 04:14:43;;;;;;;5.88;2.75;;;;;;;5.36;100.00;95289.19;4940285;29;20027;-62
2023/04/01 04:17:15;;;;;;;5.22;2.75;;;;;;;5.70;100.00;95305.66;4934605;29;20468;-62
2023/04/01 04:19:41;;;;;;;7.28;3.28;;;;;;;5.50;100.00;95312.44;4940017;29;20547;-63
2023/04/01 04:22:07;;;;;;;8.93;3.80;;;;;;;5.40;100.00;95330.59;4922740;29;20031;-62
2023/04/01 04:24:34;;;;;;;9.52;3.42;;;;;;;5.23;100.00;95341.53;4921924;29;20484;-62
2023/04/01 04:27:00;;;;;;;7.38;3.03;;;;;;;5.24;100.00;95353.63;4934686;29;20059;-62
2023/04/01 04:29:25;;;;;;;12.57;3.40;;;;;;;5.25;100.00;95347.47;4920010;29;20028;-62
2023/04/01 04:31:50;;;;;;;4.13;3.28;;;;;;;5.41;100.00;95347.09;4920953;29;20027;-63
2023/04/01 04:34:16;;;;;;;10.20;3.47;;;;;;;5.42;100.00;95351.38;4918097;29;20175;-62
2023/04/01 04:36:41;;;;;;;6.70;3.42;;;;;;;5.42;100.00;95352.22;4931269;29;20026;-62
2023/04/01 04:39:06;;;;;;;7.75;3.20;;;;;;;5.49;100.00;95354.34;4937511;29;20034;-63
2023/04/01 04:41:32;;;;;;;8.38;3.47;;;;;;;5.45;100.00;95356.34;4933962;29;20035;-63
2023/04/01 04:43:58;;;;;;;6.85;3.17;;;;;;;5.46;100.00;95360.63;4938015;29;20062;-62
2023/04/01 04:46:25;;;;;;;6.07;2.92;;;;;;;5.41;100.00;95358.38;4938906;29;20120;-62
2023/04/01 04:48:50;;;;;;;5.03;2.35;;;;;;;5.39;100.00;95370.72;4929792;29;20028;-63
2023/04/01 04:51:18;;;;;;;6.03;2.60;;;;;;;5.37;100.00;95369.19;4926715;29;20032;-63
2023/04/01 04:53:43;;;;;;;5.97;2.65;;;;;;;5.29;100.00;95354.09;4933177;29;20020;-63
2023/04/01 04:56:09;;;;;;;4.95;2.67;;;;;;;5.30;100.00;95350.53;4935246;29;20020;-63
2023/04/01 04:58:35;;;;;;;5.68;2.83;;;;;;;5.27;100.00;95345.56;4926170;29;20036;-63
2023/04/01 05:01:08;;;;;;;5.57;3.13;;;;;;;5.25;100.00;95332.63;4935231;29;20024;-63
2023/04/01 05:03:34;;;;;;;5.57;2.60;;;;;;;5.25;100.00;95337.84;4935935;29;20615;-63
2023/04/01 05:05:59;;;;;;;3.95;2.58;;;;;;;5.24;100.00;95330.13;4935361;29;20491;-63
2023/04/01 05:08:25;;;;;;;6.35;2.53;;;;;;;5.43;100.00;95326.94;4933361;29;20035;-62
2023/04/01 05:10:50;;;;;;;7.13;3.70;;;;;;;5.39;100.00;95346.41;4934140;29;20043;-62
2023/04/01 05:13:15;;;;;;;7.68;3.53;;;;;;;5.30;100.00;95348.78;4936705;29;20067;-62
2023/04/01 05:15:41;;;;;;;5.60;3.92;;;;;;;5.29;100.00;95367.97;4937379;29;20024;-63
2023/04/01 05:18:06;;;;;;;6.10;3.53;;;;;;;5.26;100.00;95368.22;4929103;29;20031;-63
2023/04/01 05:20:32;;;;;;;9.35;4.03;;;;;;;5.25;100.00;95366.53;4937809;29;20059;-63
2023/04/01 05:22:58;;;;;;;7.00;3.95;;;;;;;5.33;100.00;95371.19;4938683;29;20031;-63
2023/04/01 05:25:24;;;;;;;7.63;3.95;;;;;;;5.21;100.00;95359.09;4928789;29;20047;-63
2023/04/01 05:27:50;;;;;;;11.02;3.60;;;;;;;5.16;100.00;95373.28;4934070;29;20039;-63
2023/04/01 05:30:15;;;;;;;7.47;3.70;;;;;;;5.22;100.00;95376.41;4937319;29;20031;-63
2023/04/01 05:32:40;;;;;;;10.05;4.07;;;;;;;5.24;100.00;95374.50;4934527;29;20115;-63
2023/04/01 05:35:06;;;;;;;4.68;3.85;;;;;;;5.27;100.00;95371.66;4937124;29;20487;-63
2023/04/01 05:37:34;;;;;;;5.53;3.00;;;;;;;5.33;100.00;95371.19;4936685;29;20039;-63
2023/04/01 05:40:00;;;;;;;25.17;18.58;;;;;;;5.39;100.00;95368.09;4936928;29;20058;-62
2023/04/01 05:42:25;;;;;;;14.93;10.75;;;;;;;5.45;100.00;95361.59;4918604;29;20032;-63
2023/04/01 05:44:51;;;;;;;18.48;14.63;;;;;;;5.47;100.00;95358.88;4920203;29;20074;-63
2023/04/01 05:47:16;;;;;;;25.05;18.08;;;;;;;5.43;100.00;95364.31;4928430;29;20445;-63
2023/04/01 05:49:41;;;;;;;14.52;12.05;;;;;;;5.42;100.00;95370.50;4933595;29;20058;-63
2023/04/01 05:52:07;;;;;;;11.00;3.90;;;;;;;5.44;100.00;95379.03;4936764;29;20063;-63
2023/04/01 05:54:33;;;;;;;9.35;4.50;;;;;;;5.44;100.00;95381.66;4933798;29;20437;-63
2023/04/01 05:56:58;;;;;;;6.70;3.90;;;;;;;5.79;100.00;95392.09;4935660;29;20051;-63
2023/04/01 05:59:24;;;;;;;8.48;3.83;;;;;;;5.59;100.00;95399.69;4935606;29;20036;-63
2023/04/01 06:01:50;;;;;;;8.05;5.45;;;;;;;5.41;100.00;95407.97;4936905;29;20070;-63
2023/04/01 06:04:17;;;;;;;5.97;3.85;;;;;;;5.39;100.00;95411.66;4937021;29;20024;-63
2023/04/01 06:06:43;;;;;;;11.25;5.45;;;;;;;5.38;100.00;95418.66;4919461;29;20611;-63
2023/04/01 06:09:30;;;;;;;7.97;4.93;;;;;;;5.37;100.00;95422.22;4919279;29;20472;-63
2023/04/01 06:12:07;;;;;;;9.15;5.30;;;;;;;5.40;100.00;95429.81;4915316;29;20032;-63
2023/04/01 06:14:56;;;;;;;9.43;7.50;;;;;;;5.36;100.00;95428.38;4930755;29;20096;-63
2023/04/01 06:17:52;;;;;;;9.63;5.97;;;;;;;5.33;100.00;95446.91;4933845;29;20047;-62
2023/04/01 06:20:26;;;;;;;10.30;6.10;;;;;;;5.35;100.00;95434.56;4931718;29;20136;-63
2023/04/01 06:23:01;;;;;;;9.95;4.32;;;;;;;5.40;100.00;95449.88;4917785;29;20031;-63
2023/04/01 06:25:26;;;;;;;13.80;6.63;;;;;;;5.40;100.00;95448.09;4933804;29;20070;-63
2023/04/01 06:28:28;;;;;;;13.52;6.70;;;;;;;5.41;100.00;95456.75;4936201;29;20067;-64
2023/04/01 06:31:01;;;;;;;10.43;6.85;;;;;;;5.75;100.00;95451.59;4934946;29;20040;-63
2023/04/01 06:33:52;;;;;;;10.85;6.32;;;;;;;5.51;100.00;95454.28;4936482;29;20024;-63
2023/04/01 06:36:50;;;;;;;12.00;8.00;;;;;;;5.49;100.00;95454.38;4933656;29;20043;-63
2023/04/01 06:39:46;;;;;;;15.77;11.45;;;;;;;5.44;100.00;95454.75;4911929;29;20115;-63
2023/04/01 06:42:46;;;;;;;13.88;9.65;;;;;;;5.44;100.00;95446.94;4926378;29;20139;-63
2023/04/01 06:45:12;;;;;;;11.65;7.40;;;;;;;5.52;100.00;95438.47;4856232;29;20086;-63
2023/04/01 06:48:08;;;;;;;10.40;6.30;;;;;;;5.68;100.00;95446.00;4913858;29;21043;-63
2023/04/01 06:50:43;;;;;;;10.88;6.03;;;;;;;5.85;100.00;95449.91;4933311;29;20032;-63
2023/04/01 06:53:08;;;;;;;;;;;;;;;5.94;100.00;95458.84;4922375;29;22205;-63
2023/04/01 06:56:00;;;;;;;;;;;;;;;5.93;100.00;95454.56;4932273;29;20001;-63
2023/04/01 06:58:41;;;;;;;9.40;4.68;;;;;;;5.89;100.00;95463.59;4905281;29;19947;-63
2023/04/01 07:01:13;;;;;;;6.97;4.63;;;;;;;5.88;100.00;95462.75;4932255;29;20035;-63
2023/04/01 07:03:47;;;;;;;7.68;4.90;;;;;;;5.96;100.00;95449.09;4931236;29;20088;-63
2023/04/01 07:06:26;;;;;;;6.22;4.70;;;;;;;5.88;100.00;95460.13;4917472;29;20027;-63
2023/04/01 07:08:55;;;;;;;10.57;9.00;;;;;;;5.86;100.00;95462.03;4931978;29;20030;-63
2023/04/01 07:11:30;;;;;;;7.88;4.25;;;;;;;5.88;100.00;95467.97;4928124;29;20115;-63
2023/04/01 07:14:06;;;;;;;7.97;4.82;;;;;;;6.03;100.00;95470.38;4932854;29;20075;-63
2023/04/01 07:16:34;;;;;;;9.25;5.10;;;;;;;6.19;100.00;95463.94;4910207;29;20095;-63
2023/04/01 07:19:16;;;;;;;4.70;4.15;;;;;;;6.16;100.00;95467.66;4913469;29;20063;-63
2023/04/01 07:21:46;;;;;;;6.20;3.42;;;;;;;6.13;100.00;95463.47;4931180;29;20051;-63
2023/04/01 07:24:25;;;;;;;6.40;4.30;;;;;;;6.09;100.00;95462.06;4931401;29;20032;-63
2023/04/01 07:26:55;;;;;;;11.20;7.80;;;;;;;6.08;100.00;95467.38;4917265;29;20336;-63
2023/04/01 07:29:21;;;;;;;9.77;6.03;;;;;;;6.06;100.00;95462.31;4936385;29;20027;-63
2023/04/01 07:32:05;;;;;;;5.95;4.10;;;;;;;6.11;100.00;95464.56;4930187;29;20375;-63
2023/04/01 07:34:47;;;;;;;10.20;5.38;;;;;;;6.15;100.00;95476.44;4937771;29;20146;-64
2023/04/01 07:37:37;;;;;;;6.63;3.70;;;;;;;6.14;100.00;95478.22;4940268;29;20043;-63
2023/04/01 07:40:21;;;;;;;8.25;3.97;;;;;;;6.30;100.00;95483.09;4932144;29;20020;-64
2023/04/01 07:43:21;;;;;;;3.88;2.97;;;;;;;6.25;100.00;95485.22;4933536;29;20023;-64
2023/04/01 07:46:14;;;;;;;6.35;3.20;;;;;;;6.21;100.00;95482.97;4933794;29;20023;-63
2023/04/01 07:48:45;;;;;;;2.60;1.83;;;;;;;6.29;100.00;95491.84;4931728;29;20028;-63
2023/04/01 07:51:27;;;;;;;7.45;4.80;;;;;;;6.57;100.00;95479.22;4937015;29;20035;-63
2023/04/01 07:54:08;;;;;;;8.27;4.07;;;;;;;6.64;100.00;95468.28;4935729;29;20306;-63
2023/04/01 07:56:58;;;;;;;5.07;3.85;;;;;;;6.78;100.00;95469.78;4937336;29;20040;-64
2023/04/01 07:59:51;;;;;;;3.17;2.60;;;;;;;6.82;100.00;95471.19;4932516;29;20168;-63
2023/04/01 08:02:54;;;;;;;3.20;2.88;;;;;;;6.86;100.00;95472.63;4938530;29;20373;-63
2023/04/01 08:05:34;;;;;;;5.07;3.47;;;;;;;6.75;100.00;95452.56;4928026;29;20039;-63
2023/04/01 08:08:28;;;;;;;5.63;3.78;;;;;;;6.72;100.00;95456.25;4935464;29;20034;-63
2023/04/01 08:11:08;;;;;;;6.85;3.95;;;;;;;6.73;100.00;95447.44;4931827;29;20102;-63
2023/04/01 08:13:50;;;;;;;8.00;6.40;;;;;;;6.82;100.00;95432.78;4932633;29;20543;-64
2023/04/01 08:16:39;;;;;;;7.00;4.78;;;;;;;7.10;100.00;95422.66;4931666;29;20047;-63
2023/04/01 08:19:28;;;;;;;2.70;2.50;;;;;;;7.67;100.00;95414.44;4933689;29;20024;-63
2023/04/01 08:21:58;;;;;;;2.17;1.75;;;;;;;8.51;100.00;95411.69;4937391;29;20687;-63
2023/04/01 08:24:44;;;;;;;2.88;2.47;;;;;;;8.95;100.00;95406.03;4936953;29;20106;-63
2023/04/01 08:27:14;;;;;;;2.33;1.90;;;;;;;8.73;100.00;95400.09;4938628;29;20036;-64
2023/04/01 08:29:50;;;;;;;1.52;1.42;;;;;;;8.52;100.00;95408.94;4939272;29;20031;-63
2023/04/01 08:32:22;;;;;;;2.65;2.15;;;;;;;8.32;100.00;95401.00;4935832;29;20488;-63
2023/04/01 08:34:58;;;;;;;3.30;2.40;;;;;;;8.28;100.00;95411.88;4929682;29;20028;-63
2023/04/01 08:37:30;;;;;;;3.00;2.30;;;;;;;8.45;98.36;95423.50;4937832;29;20016;-63
2023/04/01 08:40:28;;;;;;;3.00;2.70;;;;;;;8.45;97.77;95421.72;4921482;29;20031;-63
2023/04/01 08:43:12;;;;;;;2.80;2.60;;;;;;;8.01;99.95;95429.88;4919884;29;20039;-63
2023/04/01 08:46:15;;;;;;;2.42;2.17;;;;;;;7.84;100.00;95430.50;4935853;29;20039;-63
2023/04/01 08:48:40;;;;;;;3.60;2.65;;;;;;;7.97;100.00;95431.13;4935355;29;20032;-63
2023/04/01 08:51:26;;;;;;;4.05;1.90;;;;;;;8.09;96.86;95438.91;4932848;29;20556;-63
2023/04/01 08:54:08;;;;;;;2.92;1.90;;;;;;;8.16;97.25;95438.22;4919297;29;20103;-63
2023/04/01 08:56:41;;;;;;;1.50;1.40;;;;;;;8.41;95.09;95437.88;4936075;29;20130;-63
2023/04/01 08:59:22;;;;;;;1.85;1.73;;;;;;;8.65;94.26;95449.81;4937093;29;20030;-63
2023/04/01 09:02:09;;;;;;;3.78;2.00;;;;;;;8.72;93.90;95448.28;4934340;29;20035;-64
2023/04/01 09:04:46;;;;;;;3.17;2.15;;;;;;;8.65;96.42;95457.69;4934916;29;20038;-63
2023/04/01 09:07:20;;;;;;;2.63;2.28;;;;;;;8.91;95.26;95462.41;4927721;29;20040;-63
2023/04/01 09:09:56;;;;;;;2.75;2.05;;;;;;;8.57;94.58;95472.31;4935316;29;20042;-64
2023/04/01 09:12:45;;;;;;;3.95;1.77;;;;;;;8.39;92.08;95468.66;4938243;29;20126;-64
2023/04/01 09:15:42;;;;;;;3.20;2.10;;;;;;;8.55;92.50;95458.53;4939210;29;20038;-64
2023/04/01 09:18:45;;;;;;;5.43;2.00;;;;;;;8.93;92.54;95463.09;4938301;29;20032;-63
2023/04/01 09:21:46;;;;;;;4.38;2.00;;;;;;;9.23;92.50;95469.22;4925170;29;20024;-62
2023/04/01 09:24:26;;;;;;;4.03;2.28;;;;;;;9.64;93.88;95472.47;4934641;29;20049;-62
2023/04/01 09:27:05;;;;;;;2.72;2.53;;;;;;;10.04;95.27;95463.47;4928951;29;20060;-62
2023/04/01 09:29:54;;;;;;;2.17;2.03;;;;;;;11.00;88.98;95463.28;4932464;29;20038;-63
2023/04/01 09:32:52;;;;;;;3.85;3.47;;;;;;;10.71;83.63;95464.28;4920889;29;20097;-62
2023/04/01 09:35:33;;;;;;;3.03;2.60;;;;;;;11.00;84.93;95450.13;4906992;29;20028;-63
2023/04/01 09:38:20;;;;;;;6.25;2.88;;;;;;;10.56;87.24;95449.03;4920929;29;20035;-63
2023/04/01 09:40:57;;;;;;;3.58;2.22;;;;;;;10.01;88.52;95449.81;4930039;29;20059;-61
2023/04/01 09:43:27;;;;;;;4.72;2.53;;;;;;;9.67;88.96;95439.81;4932780;29;20038;-63
2023/04/01 09:46:08;;;;;;;3.60;1.80;;;;;;;9.08;86.51;95438.09;4935162;29;20155;-62
2023/04/01 09:49:11;;;;;;;3.92;2.20;;;;;;;9.26;88.62;95427.72;4929787;29;20033;-64
2023/04/01 09:51:49;;;;;;;3.85;1.90;;;;;;;9.73;85.53;95429.56;4935935;29;20032;-63
2023/04/01 09:54:24;;;;;;;2.40;1.88;;;;;;;9.53;86.79;95413.03;4930623;29;20045;-63
2023/04/01 09:57:10;;;;;;;1.60;1.50;;;;;;;9.40;81.53;95410.72;4931846;29;20070;-64
2023/04/01 09:59:54;;;;;;;1.60;1.50;;;;;;;9.12;84.43;95405.34;4929089;29;20046;-63
2023/04/01 10:02:44;;;;;;;2.20;1.83;;;;;;;9.65;83.42;95402.31;4925840;29;21549;-63
2023/04/01 10:05:38;;;;;;;3.55;1.90;;;;;;;9.95;85.87;95392.53;4928958;29;20601;-63
2023/04/01 10:08:28;;;;;;;5.28;2.60;;;;;;;10.81;89.11;95395.78;4905317;29;20099;-62
2023/04/01 10:11:44;;;;;;;2.75;2.10;;;;;;;10.84;85.17;95396.31;4931948;29;20488;-63
2023/04/01 10:14:52;;;;;;;3.20;2.00;;;;;;;10.21;86.34;95399.75;4936642;29;20036;-64
2023/04/01 10:17:45;;;;;;;3.25;2.35;;;;;;;9.89;95.36;95401.84;4915287;29;20149;-63
2023/04/01 10:20:32;;;;;;;4.13;2.60;;;;;;;9.92;90.99;95408.59;4934117;29;20020;-63
2023/04/01 10:23:16;;;;;;;4.10;2.33;;;;;;;9.45;88.55;95403.22;4932051;29;20039;-63
2023/04/01 10:25:53;;;;;;;1.60;1.50;;;;;;;9.05;88.99;95411.28;4935803;29;20036;-63
2023/04/01 10:28:40;;;;;;;4.45;2.83;;;;;;;8.62;92.08;95403.69;4934431;29;20041;-62
2023/04/01 10:31:27;;;;;;;4.60;3.22;;;;;;;9.19;90.33;95404.78;4925258;29;20450;-62
2023/04/01 10:34:30;;;;;;;3.67;1.90;;;;;;;9.54;88.98;95396.28;4924210;29;20036;-63
2023/04/01 10:36:58;;;;;;;2.90;2.45;;;;;;;10.50;87.88;95404.88;4931923;29;20035;-63
2023/04/01 10:39:33;;;;;;;2.55;2.25;;;;;;;11.24;86.80;95406.50;4937683;29;20075;-63
2023/04/01 10:42:20;;;;;;;2.35;2.10;;;;;;;11.51;81.67;95397.66;4935950;29;20500;-63
2023/04/01 10:45:07;;;;;;;2.97;2.28;;;;;;;11.78;83.00;95393.19;4924726;29;20028;-63
2023/04/01 10:47:57;;;;;;;2.45;2.00;;;;;;;12.48;76.36;95395.81;4929857;29;20032;-64
2023/04/01 10:50:43;;;;;;;2.28;1.77;;;;;;;13.15;71.93;95379.88;4925470;29;20634;-64
2023/04/01 10:53:31;;;;;;;1.67;1.58;;;;;;;13.77;72.92;95361.78;4928089;29;20102;-63
2023/04/01 10:56:08;;;;;;;1.73;1.25;;;;;;;14.22;60.76;95356.00;4935241;29;20121;-64
2023/04/01 10:59:10;;;;;;;2.63;1.40;;;;;;;13.94;68.08;95344.03;4932393;29;20454;-64
2023/04/01 11:02:19;;;;;;;2.17;1.48;;;;;;;13.21;67.83;95341.34;4937980;29;20043;-64
2023/04/01 11:05:25;;;;;;;1.55;1.45;;;;;;;14.56;65.30;95329.16;4914680;29;20042;-63
2023/04/01 11:08:15;;;;;;;1.50;1.13;;;;;;;15.31;57.70;95320.63;4938965;29;20180;-63
2023/04/01 11:11:02;;;;;;;2.10;1.80;;;;;;;15.18;61.53;95321.25;4933699;29;20374;-63
2023/04/01 11:13:58;;;;;;;3.17;1.90;;;;;;;14.80;66.65;95321.22;4941715;29;20032;-64
2023/04/01 11:17:00;;;;;;;1.25;1.15;;;;;;;14.66;57.78;95322.78;4940827;29;20499;-64
2023/04/01 11:19:53;;;;;;;1.38;1.20;;;;;;;14.07;58.64;95317.00;4937239;29;20028;-63
2023/04/01 11:22:47;;;;;;;2.67;1.10;;;;;;;14.56;59.92;95307.97;4940779;29;20020;-63
2023/04/01 11:25:50;;;;;;;1.92;1.80;;;;;;;15.11;60.58;95299.91;4934336;29;20032;-64
2023/04/01 11:28:38;;;;;;;1.00;0.95;;;;;;;13.94;61.64;95292.94;4942385;29;20136;-63
2023/04/01 11:31:25;;;;;;;1.15;1.08;;;;;;;14.22;63.25;95305.69;4937284;29;20485;-63
2023/04/01 11:34:02;;;;;;;1.27;1.17;;;;;;;13.84;60.43;95299.25;4934256;29;20024;-63
2023/04/01 11:36:59;;;;;;;1.52;1.00;;;;;;;13.27;61.72;95316.94;4924879;29;20464;-63
2023/04/01 11:39:52;;;;;;;1.20;1.08;;;;;;;12.28;66.42;95325.66;4929448;29;20560;-63
2023/04/01 11:42:35;;;;;;;1.38;1.27;;;;;;;12.20;66.27;95322.97;4942747;29;20019;-63
2023/04/01 11:45:10;;;;;;;1.98;1.42;;;;;;;11.52;67.30;95330.75;4936364;29;20027;-63
2023/04/01 11:48:03;;;;;;;1.20;0.98;;;;;;;11.16;69.53;95334.34;4941838;29;20039;-63
2023/04/01 11:50:50;;;;;;;1.10;1.10;;;;;;;10.99;72.08;95338.66;4938907;29;20042;-63
2023/04/01 11:53:18;;;;;;;3.28;1.40;;;;;;;10.45;72.38;95349.19;4937644;29;20515;-63
2023/04/01 11:55:52;;;;;;;1.42;1.10;;;;;;;9.96;75.91;95345.03;4937807;29;20039;-63
2023/04/01 11:58:24;;;;;;;2.08;1.48;;;;;;;9.81;77.61;95349.97;4938092;29;20040;-63
2023/04/01 12:01:14;;;;;;;1.75;1.25;;;;;;;9.99;78.79;95344.75;4942223;29;20032;-64
2023/04/01 12:04:13;;;;;;;1.10;1.10;;;;;;;9.81;79.31;95341.25;4926650;29;20068;-63
2023/04/01 12:06:42;;;;;;;3.25;1.75;;;;;;;9.75;79.04;95335.59;4935529;29;20032;-62
2023/04/01 12:09:45;;;;;;;1.83;1.27;;;;;;;10.48;76.99;95340.19;4938307;29;20039;-64
2023/04/01 12:12:29;;;;;;;1.40;1.30;;;;;;;11.65;73.20;95324.22;4923949;29;20046;-63
2023/04/01 12:15:09;;;;;;;1.10;1.10;;;;;;;12.24;67.45;95310.28;4929442;29;20042;-64